createdAt,value
2019-04-06T00:00:50.556Z,95491.11
2019-04-06T00:03:22.365Z,95501.03
2019-04-06T00:05:54.397Z,95504.48
2019-04-06T00:08:26.497Z,95506.65
2019-04-06T00:10:58.308Z,95512.27
2019-04-06T00:13:30.327Z,95505.59
2019-04-06T00:16:02.208Z,95495.94
2019-04-06T00:18:34.190Z,95497.09
2019-04-06T00:21:06.061Z,95500.16
2019-04-06T00:23:37.797Z,95499.94
2019-04-06T00:26:09.669Z,95495.66
2019-04-06T00:28:42.479Z,95489.66
2019-04-06T00:31:45.500Z,95487.92
2019-04-06T00:34:17.217Z,95494.73
2019-04-06T00:36:49.273Z,95492.28
2019-04-06T00:39:21.092Z,95489.89
2019-04-06T00:41:52.819Z,95498.55
2019-04-06T00:44:24.637Z,95495.75
2019-04-06T00:46:56.506Z,95498.30
2019-04-06T00:49:28.315Z,95490.95
2019-04-06T00:52:00.105Z,95488.34
2019-04-06T00:54:31.989Z,95485.19
2019-04-06T00:57:03.738Z,95480.77
2019-04-06T00:59:36.860Z,95466.58
2019-04-06T01:02:08.881Z,95459.88
2019-04-06T01:04:40.674Z,95460.36
2019-04-06T01:07:12.763Z,95462.27
2019-04-06T01:09:44.582Z,95466.77
2019-04-06T01:12:16.660Z,95468.61
2019-04-06T01:14:48.414Z,95466.41
2019-04-06T01:17:20.565Z,95465.20
2019-04-06T01:19:52.486Z,95465.16
2019-04-06T01:22:24.250Z,95469.19
2019-04-06T01:24:56.282Z,95473.30
2019-04-06T01:27:28.024Z,95482.67
2019-04-06T01:29:59.841Z,95476.88
2019-04-06T01:32:31.645Z,95475.36
2019-04-06T01:35:03.387Z,95483.02
2019-04-06T01:37:35.256Z,95484.38
2019-04-06T01:40:07.587Z,95482.68
2019-04-06T01:42:39.382Z,95482.08
2019-04-06T01:45:12.283Z,95481.58
2019-04-06T01:47:44.022Z,95475.23
2019-04-06T01:50:16.192Z,95473.45
2019-04-06T01:52:47.898Z,95482.53
2019-04-06T01:55:19.988Z,95470.52
2019-04-06T01:57:51.768Z,95471.70
2019-04-06T02:00:23.571Z,95475.09
2019-04-06T02:02:55.423Z,95468.09
2019-04-06T02:05:27.316Z,95466.79
2019-04-06T02:07:59.114Z,95472.58
2019-04-06T02:10:30.830Z,95470.19
2019-04-06T02:13:02.847Z,95462.86
2019-04-06T02:15:34.607Z,95472.34
2019-04-06T02:18:06.393Z,95470.38
2019-04-06T02:20:38.457Z,95472.34
2019-04-06T02:23:10.593Z,95471.33
2019-04-06T02:25:42.336Z,95471.86
2019-04-06T02:28:14.081Z,95468.23
2019-04-06T02:31:03.781Z,95471.70
2019-04-06T02:33:46.424Z,95473.87
2019-04-06T02:36:35.778Z,95475.23
2019-04-06T02:42:08.093Z,95474.34
2019-04-06T02:44:39.855Z,95466.80
2019-04-06T02:47:11.905Z,95473.28
2019-04-06T02:49:43.714Z,95471.47
2019-04-06T02:52:15.507Z,95473.84
2019-04-06T02:54:47.267Z,95472.66
2019-04-06T02:57:19.025Z,95473.13
2019-04-06T02:59:50.793Z,95478.00
2019-04-06T03:02:22.670Z,95479.84
2019-04-06T03:04:54.480Z,95480.37
2019-04-06T03:07:26.353Z,95485.02
2019-04-06T03:09:58.848Z,95481.84
2019-04-06T03:12:30.943Z,95478.27
2019-04-06T03:15:02.959Z,95473.12
2019-04-06T03:17:34.762Z,95473.81
2019-04-06T03:20:07.525Z,95468.28
2019-04-06T03:22:39.329Z,95469.03
2019-04-06T03:25:11.912Z,95458.94
2019-04-06T03:27:43.944Z,95459.81
2019-04-06T03:30:16.052Z,95462.97
2019-04-06T03:32:47.778Z,95466.86
2019-04-06T03:35:19.514Z,95469.44
2019-04-06T03:37:51.916Z,95461.24
2019-04-06T03:40:23.644Z,95457.97
2019-04-06T03:42:55.755Z,95465.20
2019-04-06T03:45:27.501Z,95458.23
2019-04-06T03:48:00.242Z,95471.07
2019-04-06T03:50:32.025Z,95471.84
2019-04-06T03:53:03.899Z,95468.29
2019-04-06T03:55:36.076Z,95474.36
2019-04-06T03:58:07.813Z,95465.56
2019-04-06T04:00:39.624Z,95466.31
2019-04-06T04:03:11.950Z,95465.08
2019-04-06T04:05:44.039Z,95472.78
2019-04-06T04:08:15.770Z,95471.41
2019-04-06T04:10:48.055Z,95470.67
2019-04-06T04:13:20.219Z,95475.38
2019-04-06T04:15:52.230Z,95480.28
2019-04-06T04:18:24.055Z,95470.59
2019-04-06T04:20:56.426Z,95471.59
2019-04-06T04:23:28.146Z,95469.70
2019-04-06T04:26:00.052Z,95469.95
2019-04-06T04:28:31.787Z,95476.19
2019-04-06T04:31:03.605Z,95474.41
2019-04-06T04:33:35.393Z,95470.91
2019-04-06T04:36:07.235Z,95469.95
2019-04-06T04:38:39.161Z,95474.85
2019-04-06T04:41:11.410Z,95470.27
2019-04-06T04:43:43.362Z,95476.23
2019-04-06T04:46:15.141Z,95475.94
2019-04-06T04:48:47.168Z,95467.84
2019-04-06T04:51:18.974Z,95474.94
2019-04-06T04:53:50.855Z,95474.42
2019-04-06T04:56:22.594Z,95472.99
2019-04-06T04:58:54.671Z,95475.11
2019-04-06T05:01:26.798Z,95475.50
2019-04-06T05:03:58.856Z,95472.13
2019-04-06T05:06:30.917Z,95473.77
2019-04-06T05:09:02.676Z,95464.25
2019-04-06T05:11:34.853Z,95468.56
2019-04-06T05:15:00.257Z,95468.26
2019-04-06T05:17:32.147Z,95472.02
2019-04-06T05:20:04.125Z,95472.77
2019-04-06T05:22:35.943Z,95476.16
2019-04-06T05:25:08.933Z,95481.27
2019-04-06T05:27:51.257Z,95487.09
2019-04-06T05:30:14.802Z,95496.75
2019-04-06T05:32:46.541Z,95505.64
2019-04-06T05:35:18.594Z,95499.73
2019-04-06T05:37:50.338Z,95499.73
2019-04-06T05:40:22.058Z,95496.05
2019-04-06T05:42:53.793Z,95496.91
2019-04-06T05:45:26.500Z,95497.73
2019-04-06T05:47:58.561Z,95506.42
2019-04-06T05:50:30.665Z,95507.14
2019-04-06T05:53:02.519Z,95505.50
2019-04-06T05:55:34.291Z,95514.84
2019-04-06T05:58:09.805Z,95514.98
2019-04-06T06:00:40.532Z,95517.92
2019-04-06T06:03:15.349Z,95513.06
2019-04-06T06:05:46.429Z,95514.03
2019-04-06T06:08:19.648Z,95519.87
2019-04-06T06:10:51.822Z,95516.28
2019-04-06T06:13:23.953Z,95521.38
2019-04-06T06:15:55.636Z,95520.12
2019-04-06T06:18:27.739Z,95524.70
2019-04-06T06:20:59.565Z,95521.66
2019-04-06T06:23:31.608Z,95525.32
2019-04-06T06:26:03.566Z,95518.92
2019-04-06T06:28:35.366Z,95518.58
2019-04-06T06:31:07.308Z,95516.55
2019-04-06T06:33:39.380Z,95516.28
2019-04-06T06:36:11.915Z,95508.06
2019-04-06T06:38:43.794Z,95510.38
2019-04-06T06:41:15.632Z,95513.08
2019-04-06T06:43:47.456Z,95511.46
2019-04-06T06:46:19.298Z,95501.77
2019-04-06T06:48:51.041Z,95503.37
2019-04-06T06:51:22.785Z,95501.61
2019-04-06T06:53:54.772Z,95500.20
2019-04-06T06:56:26.658Z,95492.45
2019-04-06T06:58:59.803Z,95494.44
2019-04-06T07:01:31.621Z,95493.30
2019-04-06T07:04:03.543Z,95495.59
2019-04-06T07:06:35.363Z,95495.95
2019-04-06T07:09:08.652Z,95505.89
2019-04-06T07:11:40.435Z,95507.31
2019-04-06T07:14:12.772Z,95510.03
2019-04-06T07:16:44.501Z,95507.69
2019-04-06T07:19:16.233Z,95511.33
2019-04-06T07:21:48.311Z,95508.46
2019-04-06T07:24:20.375Z,95510.77
2019-04-06T07:26:52.182Z,95506.26
2019-04-06T07:29:24.022Z,95502.72
2019-04-06T07:31:55.785Z,95505.67
2019-04-06T07:34:27.580Z,95512.25
2019-04-06T07:36:59.374Z,95502.98
2019-04-06T07:39:31.727Z,95505.99
2019-04-06T07:42:03.862Z,95501.61
2019-04-06T07:44:35.643Z,95506.06
2019-04-06T07:47:07.388Z,95500.42
2019-04-06T07:49:39.124Z,95500.31
2019-04-06T07:52:12.198Z,95499.87
2019-04-06T07:54:43.942Z,95504.45
2019-04-06T07:57:15.999Z,95503.00
2019-04-06T07:59:47.913Z,95503.52
2019-04-06T08:02:19.596Z,95502.09
2019-04-06T08:04:51.844Z,95498.02
2019-04-06T08:07:23.659Z,95495.25
2019-04-06T08:09:55.409Z,95495.76
2019-04-06T08:12:27.286Z,95492.53
2019-04-06T08:14:59.047Z,95503.63
2019-04-06T08:17:31.932Z,95507.22
2019-04-06T08:20:03.772Z,95504.93
2019-04-06T08:22:35.519Z,95501.19
2019-04-06T08:25:08.306Z,95508.53
2019-04-06T08:27:40.060Z,95498.72
2019-04-06T08:30:12.279Z,95497.91
2019-04-06T08:32:44.294Z,95501.00
2019-04-06T08:35:25.237Z,95501.34
2019-04-06T08:37:50.282Z,95507.68
2019-04-06T08:40:22.393Z,95499.69
2019-04-06T08:42:54.904Z,95494.50
2019-04-06T08:45:27.033Z,95498.05
2019-04-06T08:47:58.832Z,95487.13
2019-04-06T08:50:31.259Z,95485.12
2019-04-06T08:53:03.116Z,95476.41
2019-04-06T08:55:34.854Z,95476.84
2019-04-06T08:58:06.855Z,95475.34
2019-04-06T09:00:38.928Z,95475.25
2019-04-06T09:03:11.516Z,95473.42
2019-04-06T09:05:43.403Z,95466.80
2019-04-06T09:08:15.186Z,95467.42
2019-04-06T09:10:46.976Z,95472.41
2019-04-06T09:13:19.060Z,95468.44
2019-04-06T09:15:50.790Z,95472.60
2019-04-06T09:18:22.917Z,95478.89
2019-04-06T09:20:55.053Z,95472.73
2019-04-06T09:23:26.843Z,95463.45
2019-04-06T09:25:58.581Z,95460.70
2019-04-06T09:28:30.799Z,95460.64
2019-04-06T09:31:02.887Z,95465.11
2019-04-06T09:33:34.636Z,95457.17
2019-04-06T09:36:07.272Z,95454.97
2019-04-06T09:38:39.503Z,95451.06
2019-04-06T09:41:11.691Z,95444.09
2019-04-06T09:43:43.538Z,95446.41
2019-04-06T09:46:49.340Z,95440.33
2019-04-06T09:49:39.135Z,95433.29
2019-04-06T09:52:21.615Z,95426.31
2019-04-06T09:55:07.266Z,95426.21
2019-04-06T09:58:17.777Z,95424.58
2019-04-06T10:00:58.905Z,95424.92
2019-04-06T10:03:51.235Z,95411.51
2019-04-06T10:06:45.232Z,95411.50
2019-04-06T10:09:31.120Z,95405.34
2019-04-06T10:12:18.867Z,95414.77
2019-04-06T10:15:15.889Z,95405.43
2019-04-06T10:18:03.999Z,95401.58
2019-04-06T10:20:54.660Z,95393.90
2019-04-06T10:23:54.951Z,95385.19
2019-04-06T10:26:40.187Z,95398.53
2019-04-06T10:29:47.398Z,95403.07
2019-04-06T10:32:26.661Z,95401.53
2019-04-06T10:35:10.421Z,95402.63
2019-04-06T10:38:03.860Z,95399.32
2019-04-06T10:40:56.571Z,95406.53
2019-04-06T10:43:56.639Z,95404.71
2019-04-06T10:46:47.673Z,95400.33
2019-04-06T10:49:50.311Z,95398.72
2019-04-06T10:52:42.035Z,95398.31
2019-04-06T10:55:31.815Z,95385.81
2019-04-06T10:58:15.459Z,95385.96
2019-04-06T11:01:04.997Z,95379.72
2019-04-06T11:03:43.154Z,95371.02
2019-04-06T11:06:27.505Z,95367.77
2019-04-06T11:09:18.096Z,95364.92
2019-04-06T11:12:00.001Z,95367.55
2019-04-06T11:14:50.841Z,95360.91
2019-04-06T11:17:47.494Z,95344.52
2019-04-06T11:20:41.263Z,95350.83
2019-04-06T11:23:30.915Z,95343.44
2019-04-06T11:26:20.852Z,95343.77
2019-04-06T11:29:09.533Z,95337.19
2019-04-06T11:32:06.707Z,95333.05
2019-04-06T11:34:52.167Z,95333.73
2019-04-06T11:37:35.379Z,95334.13
2019-04-06T11:40:16.053Z,95328.34
2019-04-06T11:43:05.612Z,95327.84
2019-04-06T11:45:46.514Z,95323.78
2019-04-06T11:48:52.559Z,95330.10
2019-04-06T11:51:42.301Z,95325.22
2019-04-06T11:54:36.272Z,95323.51
2019-04-06T11:57:26.589Z,95325.52
2019-04-06T12:00:25.979Z,95317.28
2019-04-06T12:03:08.304Z,95318.80
2019-04-06T12:05:46.126Z,95312.28
2019-04-06T12:08:34.157Z,95308.45
2019-04-06T12:11:27.910Z,95309.00
2019-04-06T12:14:26.418Z,95313.87
2019-04-06T12:17:20.036Z,95314.81
2019-04-06T12:20:26.208Z,95306.92
2019-04-06T12:23:11.331Z,95301.09
2019-04-06T12:26:00.969Z,95297.43
2019-04-06T12:29:00.519Z,95294.77
2019-04-06T12:31:45.071Z,95296.08
2019-04-06T12:34:27.131Z,95284.61
2019-04-06T12:37:18.017Z,95287.41
2019-04-06T12:40:03.526Z,95289.40
2019-04-06T12:42:41.980Z,95285.25
2019-04-06T12:45:31.537Z,95278.00
2019-04-06T12:48:13.674Z,95285.59
2019-04-06T12:51:07.449Z,95274.27
2019-04-06T12:53:45.333Z,95274.70
2019-04-06T12:56:41.958Z,95269.75
2019-04-06T12:59:47.678Z,95272.00
2019-04-06T13:02:31.355Z,95272.25
2019-04-06T13:05:23.477Z,95274.86
2019-04-06T13:08:07.480Z,95263.31
2019-04-06T13:10:48.657Z,95269.18
2019-04-06T13:13:30.188Z,95266.70
2019-04-06T13:16:11.356Z,95265.89
2019-04-06T13:19:08.312Z,95267.31
2019-04-06T13:21:57.719Z,95262.42
2019-04-06T13:24:39.887Z,95268.27
2019-04-06T13:27:24.854Z,95259.33
2019-04-06T13:30:27.842Z,95258.59
2019-04-06T13:33:17.514Z,95260.70
2019-04-06T13:35:58.797Z,95262.67
2019-04-06T13:39:01.343Z,95262.23
2019-04-06T13:42:03.442Z,95260.77
2019-04-06T13:44:52.854Z,95256.12
2019-04-06T13:48:01.849Z,95257.04
2019-04-06T13:50:38.302Z,95250.66
2019-04-06T13:53:21.360Z,95250.30
2019-04-06T13:56:13.473Z,95252.23
2019-04-06T13:59:07.911Z,95245.31
2019-04-06T14:01:58.640Z,95248.06
2019-04-06T14:04:45.740Z,95252.16
2019-04-06T14:07:36.435Z,95246.33
2019-04-06T14:10:23.935Z,95246.06
2019-04-06T14:16:47.668Z,95240.34
2019-04-06T14:19:49.554Z,95236.41
2019-04-06T14:22:40.913Z,95225.84
2019-04-06T14:25:42.456Z,95225.09
2019-04-06T14:28:48.352Z,95215.23
2019-04-06T14:32:04.108Z,95213.19
2019-04-06T14:35:15.674Z,95219.34
2019-04-06T14:38:10.184Z,95215.45
2019-04-06T14:41:01.197Z,95203.99
2019-04-06T14:43:44.371Z,95207.66
2019-04-06T14:46:49.681Z,95199.57
2019-04-06T14:49:49.511Z,95200.51
2019-04-06T14:52:41.039Z,95198.28
2019-04-06T14:55:27.862Z,95203.03
2019-04-06T14:58:19.583Z,95197.52
2019-04-06T15:01:01.800Z,95205.71
2019-04-06T15:03:52.775Z,95203.14
2019-04-06T15:06:43.697Z,95195.91
2019-04-06T15:09:34.564Z,95194.63
2019-04-06T15:12:25.919Z,95203.71
2019-04-06T15:15:16.768Z,95206.22
2019-04-06T15:18:06.407Z,95206.52
2019-04-06T15:20:50.984Z,95206.56
2019-04-06T15:23:37.339Z,95203.52
2019-04-06T15:26:19.379Z,95209.34
2019-04-06T15:29:18.172Z,95201.38
2019-04-06T15:32:21.466Z,95202.83
2019-04-06T15:35:05.031Z,95201.58
2019-04-06T15:37:58.182Z,95192.97
2019-04-06T15:40:41.588Z,95192.89
2019-04-06T15:43:38.737Z,95188.86
2019-04-06T15:46:17.010Z,95190.59
2019-04-06T15:48:56.924Z,95196.33
2019-04-06T15:51:46.631Z,95197.58
2019-04-06T15:54:24.735Z,95200.77
2019-04-06T15:57:03.192Z,95192.20
2019-04-06T16:00:03.010Z,95189.77
2019-04-06T16:02:57.832Z,95189.48
2019-04-06T16:05:50.610Z,95190.95
2019-04-06T16:08:41.261Z,95190.05
2019-04-06T16:11:34.758Z,95189.97
2019-04-06T16:14:16.744Z,95191.78
2019-04-06T16:16:57.980Z,95191.42
2019-04-06T16:19:39.212Z,95188.39
2019-04-06T16:22:24.023Z,95193.34
2019-04-06T16:25:07.093Z,95185.66
2019-04-06T16:27:53.337Z,95188.75
2019-04-06T16:30:47.210Z,95186.83
2019-04-06T16:33:40.737Z,95187.16
2019-04-06T16:36:30.241Z,95182.85
2019-04-06T16:39:27.828Z,95175.34
2019-04-06T16:42:17.051Z,95180.78
2019-04-06T16:45:13.837Z,95180.23
2019-04-06T16:48:03.207Z,95184.59
2019-04-06T16:50:40.923Z,95187.62
2019-04-06T16:53:44.014Z,95188.70
2019-04-06T16:56:34.710Z,95179.93
2019-04-06T16:59:28.587Z,95189.56
2019-04-06T17:02:24.703Z,95190.44
2019-04-06T17:05:20.751Z,95192.03
2019-04-06T17:08:12.769Z,95199.44
2019-04-06T17:11:05.763Z,95193.16
2019-04-06T17:14:01.570Z,95193.22
2019-04-06T17:17:04.783Z,95198.05
2019-04-06T17:19:59.525Z,95194.70
2019-04-06T17:22:37.199Z,95194.70
2019-04-06T17:25:23.400Z,95191.23
2019-04-06T17:28:01.630Z,95197.83
2019-04-06T17:30:38.575Z,95199.82
2019-04-06T17:33:17.317Z,95204.50
2019-04-06T17:36:00.627Z,95208.23
2019-04-06T17:38:42.906Z,95211.80
2019-04-06T17:41:46.530Z,95209.25
2019-04-06T17:44:37.385Z,95207.73
2019-04-06T17:47:28.807Z,95208.22
2019-04-06T17:50:12.168Z,95213.38
2019-04-06T17:52:55.577Z,95216.63
2019-04-06T17:55:37.838Z,95218.28
2019-04-06T17:58:35.508Z,95221.37
2019-04-06T18:01:35.727Z,95215.05
2019-04-06T18:04:25.293Z,95214.91
2019-04-06T18:07:15.099Z,95215.96
2019-04-06T18:10:04.620Z,95217.62
2019-04-06T18:12:45.436Z,95223.07
2019-04-06T18:15:17.796Z,95226.84
2019-04-06T18:17:49.775Z,95226.22
2019-04-06T18:20:22.031Z,95225.20
2019-04-06T18:22:54.139Z,95231.38
2019-04-06T18:25:26.162Z,95232.94
2019-04-06T18:27:58.168Z,95235.22
2019-04-06T18:30:30.502Z,95240.73
2019-04-06T18:33:08.795Z,95244.45
2019-04-06T18:35:40.649Z,95238.10
2019-04-06T18:38:20.951Z,95241.61
2019-04-06T18:40:53.648Z,95243.48
2019-04-06T18:43:25.534Z,95248.82
2019-04-06T18:45:57.633Z,95248.12
2019-04-06T18:48:30.748Z,95251.86
2019-04-06T18:51:02.536Z,95252.70
2019-04-06T18:53:34.358Z,95248.03
2019-04-06T18:56:06.422Z,95246.88
2019-04-06T18:58:38.169Z,95255.03
2019-04-06T19:01:10.113Z,95261.90
2019-04-06T19:03:43.145Z,95262.61
2019-04-06T19:06:15.157Z,95264.94
2019-04-06T19:08:47.177Z,95270.67
2019-04-06T19:11:19.031Z,95271.08
2019-04-06T19:13:51.050Z,95273.44
2019-04-06T19:16:22.892Z,95275.39
2019-04-06T19:18:54.784Z,95275.63
2019-04-06T19:21:26.792Z,95281.91
2019-04-06T19:23:58.944Z,95282.14
2019-04-06T19:26:31.139Z,95283.55
2019-04-06T19:29:03.012Z,95284.34
2019-04-06T19:31:35.389Z,95283.74
2019-04-06T19:34:07.431Z,95285.17
2019-04-06T19:36:39.556Z,95285.05
2019-04-06T19:39:15.192Z,95284.35
2019-04-06T19:41:47.286Z,95289.42
2019-04-06T19:44:19.473Z,95284.83
2019-04-06T19:46:51.327Z,95292.52
2019-04-06T19:49:23.201Z,95285.13
2019-04-06T19:51:55.432Z,95291.29
2019-04-06T19:54:27.296Z,95285.80
2019-04-06T19:56:59.116Z,95283.16
2019-04-06T19:59:31.187Z,95287.95
2019-04-06T20:02:03.074Z,95284.20
2019-04-06T20:04:35.418Z,95285.22
2019-04-06T20:07:10.958Z,95289.19
2019-04-06T20:09:42.151Z,95287.58
2019-04-06T20:12:14.138Z,95291.09
2019-04-06T20:14:45.871Z,95286.25
2019-04-06T20:17:17.861Z,95280.79
2019-04-06T20:19:49.772Z,95281.08
2019-04-06T20:22:22.961Z,95282.31
2019-04-06T20:24:54.837Z,95279.68
2019-04-06T20:27:26.987Z,95286.59
2019-04-06T20:29:58.817Z,95274.30
2019-04-06T20:32:30.626Z,95274.30
2019-04-06T20:35:02.940Z,95275.55
2019-04-06T20:37:35.784Z,95280.32
2019-04-06T20:40:08.702Z,95273.00
2019-04-06T20:42:40.585Z,95279.70
2019-04-06T20:45:13.059Z,95278.19
2019-04-06T20:47:44.855Z,95283.97
2019-04-06T20:50:16.877Z,95280.40
2019-04-06T20:52:49.148Z,95280.89
2019-04-06T20:55:21.047Z,95279.06
2019-04-06T20:57:52.792Z,95272.28
2019-04-06T21:00:24.668Z,95284.63
2019-04-06T21:02:56.665Z,95272.26
2019-04-06T21:05:28.891Z,95272.36
2019-04-06T21:08:00.904Z,95277.39
2019-04-06T21:10:32.730Z,95276.28
2019-04-06T21:13:04.440Z,95276.98
2019-04-06T21:15:36.429Z,95273.61
2019-04-06T21:18:09.326Z,95273.92
2019-04-06T21:20:41.255Z,95271.72
2019-04-06T21:23:15.131Z,95268.06
2019-04-06T21:25:46.793Z,95265.06
2019-04-06T21:28:18.813Z,95262.00
2019-04-06T21:30:50.581Z,95260.37
2019-04-06T21:33:23.338Z,95263.16
2019-04-06T21:35:55.362Z,95269.02
2019-04-06T21:38:27.265Z,95260.40
2019-04-06T21:40:59.305Z,95265.92
2019-04-06T21:43:31.144Z,95258.13
2019-04-06T21:46:02.905Z,95266.45
2019-04-06T21:48:35.224Z,95262.47
2019-04-06T21:51:08.020Z,95264.70
2019-04-06T21:53:40.261Z,95271.05
2019-04-06T21:56:12.338Z,95273.46
2019-04-06T21:58:44.692Z,95266.63
2019-04-06T22:01:18.500Z,95261.16
2019-04-06T22:03:52.322Z,95270.82
2019-04-06T22:06:25.705Z,95273.59
2019-04-06T22:08:57.755Z,95268.78
2019-04-06T22:11:29.640Z,95270.61
2019-04-06T22:14:01.887Z,95269.09
2019-04-06T22:16:33.820Z,95267.28
2019-04-06T22:19:05.807Z,95266.36
2019-04-06T22:21:37.610Z,95276.20
2019-04-06T22:24:09.599Z,95275.64
2019-04-06T22:26:41.375Z,95269.84
2019-04-06T22:29:13.120Z,95268.77
2019-04-06T22:31:44.963Z,95272.75
2019-04-06T22:34:17.249Z,95273.38
2019-04-06T22:36:49.040Z,95273.77
2019-04-06T22:39:21.511Z,95271.39
2019-04-06T22:41:53.695Z,95272.16
2019-04-06T22:44:26.586Z,95272.56
2019-04-06T22:46:58.901Z,95272.58
2019-04-06T22:49:30.677Z,95273.31
2019-04-06T22:52:02.419Z,95269.25
2019-04-06T22:54:34.504Z,95271.24
2019-04-06T22:57:06.401Z,95270.57
2019-04-06T22:59:38.213Z,95269.34
2019-04-06T23:02:11.962Z,95269.27
2019-04-06T23:04:51.494Z,95272.31
2019-04-06T23:07:25.103Z,95268.80
2019-04-06T23:09:57.688Z,95276.23
2019-04-06T23:12:29.469Z,95273.65
2019-04-06T23:15:01.630Z,95278.48
2019-04-06T23:17:34.000Z,95278.44
2019-04-06T23:20:06.606Z,95280.11
2019-04-06T23:22:38.318Z,95279.18
2019-04-06T23:25:10.632Z,95280.25
2019-04-06T23:27:42.398Z,95280.25
2019-04-06T23:30:14.354Z,95279.92
2019-04-06T23:32:46.596Z,95277.74
2019-04-06T23:35:18.594Z,95274.21
2019-04-06T23:37:50.299Z,95275.28
2019-04-06T23:40:22.454Z,95272.72
2019-04-06T23:42:54.126Z,95287.42
2019-04-06T23:45:26.261Z,95283.41
2019-04-06T23:47:58.125Z,95278.22
2019-04-06T23:50:30.118Z,95279.59
2019-04-06T23:53:01.913Z,95284.52
2019-04-06T23:55:33.728Z,95280.52
2019-04-06T23:58:05.654Z,95282.82
